Time;durP1;ratioP1;P1;durP2;ratioP2;P2;SDS_P1;SDS_P2;PMS_P1;PMS_P2;Temp;Humidity;BMP_temperature;BMP_pressure;BME280_temperature;BME280_humidity;BME280_pressure;Samples;Min_cycle;Max_cycle;Signal;HPM_P1;HPM_P2
2022/09/27 00:02:02;;;;;;;0.60;0.55;;;;;;;;;;4619781;27;20023;-61
2022/09/27 00:04:12;;;;;;;0.77;0.60;;;;;;;;;;4620493;27;20025;-61
2022/09/27 00:06:25;;;;;;;0.90;0.60;;;;;;;;;;4619117;27;20063;-59
2022/09/27 00:08:36;;;;;;;1.08;0.60;;;;;;;;;;4617783;27;20027;-63
2022/09/27 00:10:46;;;;;;;0.82;0.50;;;;;;;;;;4599909;27;20023;-61
2022/09/27 00:12:57;;;;;;;0.75;0.50;;;;;;;;;;4602951;27;20588;-60
2022/09/27 00:15:08;;;;;;;0.60;0.50;;;;;;;;;;4601849;27;20040;-60
2022/09/27 00:17:19;;;;;;;0.50;0.50;;;;;;;;;;4603826;27;20062;-60
2022/09/27 00:19:29;;;;;;;0.65;0.50;;;;;;;;;;4619271;27;20032;-60
2022/09/27 00:21:40;;;;;;;0.88;0.70;;;;;;;;;;4619441;27;20046;-60
2022/09/27 00:23:51;;;;;;;1.50;0.70;;;;;;;;;;4617742;27;20031;-60
2022/09/27 00:26:01;;;;;;;0.82;0.60;;;;;;;;;;4619195;27;20039;-60
2022/09/27 00:28:12;;;;;;;1.13;0.68;;;;;;;;;;4618178;27;20046;-60
2022/09/27 00:30:23;;;;;;;2.15;0.80;;;;;;;;;;4619368;27;20773;-60
2022/09/27 00:32:33;;;;;;;1.23;0.73;;;;;;;;;;4602659;27;20096;-60
2022/09/27 00:34:44;;;;;;;1.55;0.80;;;;;;;;;;4602870;27;20031;-60
2022/09/27 00:36:54;;;;;;;1.42;0.88;;;;;;;;;;4608886;27;20520;-60
2022/09/27 00:39:05;;;;;;;0.73;0.70;;;;;;;;;;4602110;27;20092;-60
2022/09/27 00:41:18;;;;;;;1.55;0.80;;;;;;;;;;4616545;27;20031;-61
2022/09/27 00:43:50;;;;;;;1.27;0.80;;;;;;;;;;4618014;27;20027;-61
2022/09/27 00:46:02;;;;;;;0.70;0.60;;;;;;;;;;4582189;27;20035;-60
2022/09/27 00:48:15;;;;;;;1.27;0.75;;;;;;;;;;4615918;27;20046;-60
2022/09/27 00:50:28;;;;;;;1.70;0.95;;;;;;;;;;4599672;27;20030;-60
2022/09/27 00:52:51;;;;;;;1.75;0.77;;;;;;;;;;4617784;27;20027;-60
2022/09/27 00:55:06;;;;;;;1.42;0.70;;;;;;;;;;4584775;27;20509;-60
2022/09/27 00:57:18;;;;;;;1.65;1.00;;;;;;;;;;4602338;27;20078;-60
2022/09/27 00:59:33;;;;;;;1.13;0.90;;;;;;;;;;4569846;27;20032;-60
2022/09/27 01:01:43;;;;;;;1.20;0.70;;;;;;;;;;4586137;27;20079;-61
2022/09/27 01:04:08;;;;;;;1.63;0.90;;;;;;;;;;4617236;27;20110;-60
2022/09/27 01:06:20;;;;;;;1.33;0.63;;;;;;;;;;4604641;27;20035;-60
2022/09/27 01:08:30;;;;;;;0.90;0.70;;;;;;;;;;4607135;27;20043;-60
2022/09/27 01:10:51;;;;;;;1.25;0.82;;;;;;;;;;4606015;27;20027;-59
2022/09/27 01:13:11;;;;;;;2.10;0.90;;;;;;;;;;4605100;27;20050;-61
2022/09/27 01:15:42;;;;;;;1.60;0.88;;;;;;;;;;4606558;27;20652;-60
2022/09/27 01:18:14;;;;;;;2.13;1.00;;;;;;;;;;4575187;27;20031;-60
2022/09/27 01:20:49;;;;;;;1.38;0.80;;;;;;;;;;4599797;27;20035;-61
2022/09/27 01:23:38;;;;;;;1.23;0.90;;;;;;;;;;4607462;27;20788;-61
2022/09/27 01:26:13;;;;;;;1.35;0.80;;;;;;;;;;4608565;27;20042;-61
2022/09/27 01:28:51;;;;;;;1.58;0.90;;;;;;;;;;4617748;27;20051;-62
2022/09/27 01:31:22;;;;;;;;;;;;;;;;;;4608352;27;20130;-60
2022/09/27 01:33:41;;;;;;;1.60;1.00;;;;;;;;;;4598041;27;19923;-61
2022/09/27 01:36:03;;;;;;;1.40;0.90;;;;;;;;;;4601661;27;20021;-61
2022/09/27 01:38:25;;;;;;;0.93;0.70;;;;;;;;;;4590043;27;20085;-61
2022/09/27 01:40:51;;;;;;;1.23;0.90;;;;;;;;;;4589811;27;20036;-61
2022/09/27 01:43:24;;;;;;;2.10;0.80;;;;;;;;;;4616778;27;20039;-60
2022/09/27 01:45:43;;;;;;;1.08;0.70;;;;;;;;;;4598097;27;20027;-61
2022/09/27 01:48:02;;;;;;;0.90;0.70;;;;;;;;;;4583719;27;20742;-61
2022/09/27 01:51:09;;;;;;;0.82;0.70;;;;;;;;;;4598949;27;20058;-60
2022/09/27 01:53:41;;;;;;;0.95;0.82;;;;;;;;;;4548840;28;20153;-60
2022/09/27 01:56:40;;;;;;;1.42;0.90;;;;;;;;;;4551282;28;20045;-61
2022/09/27 01:59:04;;;;;;;1.20;0.90;;;;;;;;;;4571112;27;20044;-61
2022/09/27 02:01:17;;;;;;;1.05;0.70;;;;;;;;;;4589032;27;20028;-60
2022/09/27 02:03:36;;;;;;;1.55;0.80;;;;;;;;;;4582453;27;20019;-60
2022/09/27 02:06:17;;;;;;;0.95;0.70;;;;;;;;;;4601220;27;20122;-60
2022/09/27 02:08:43;;;;;;;1.58;0.70;;;;;;;;;;4597212;27;20174;-61
2022/09/27 02:11:08;;;;;;;1.70;0.80;;;;;;;;;;4580577;27;20032;-60
2022/09/27 02:13:23;;;;;;;0.73;0.50;;;;;;;;;;4597299;27;21104;-61
2022/09/27 02:16:24;;;;;;;1.88;0.73;;;;;;;;;;4592938;27;20116;-61
2022/09/27 02:19:04;;;;;;;0.90;0.52;;;;;;;;;;4610303;27;20039;-60
2022/09/27 02:21:15;;;;;;;1.35;0.70;;;;;;;;;;4564444;27;20866;-61
2022/09/27 02:23:37;;;;;;;0.88;0.52;;;;;;;;;;4605380;27;20036;-61
2022/09/27 02:25:52;;;;;;;0.90;0.52;;;;;;;;;;4610383;27;20813;-61
2022/09/27 02:28:15;;;;;;;1.02;0.50;;;;;;;;;;4609234;27;20049;-61
2022/09/27 02:30:26;;;;;;;0.85;0.52;;;;;;;;;;4600106;27;20571;-60
2022/09/27 02:32:44;;;;;;;1.25;0.50;;;;;;;;;;4617392;27;20035;-61
2022/09/27 02:34:58;;;;;;;2.40;0.70;;;;;;;;;;4600037;27;20634;-60
2022/09/27 02:37:09;;;;;;;1.13;0.60;;;;;;;;;;4593157;27;20135;-61
2022/09/27 02:39:20;;;;;;;0.80;0.40;;;;;;;;;;4599930;27;20623;-60
2022/09/27 02:41:33;;;;;;;1.15;0.65;;;;;;;;;;4591502;27;21245;-61
2022/09/27 02:43:47;;;;;;;0.63;0.60;;;;;;;;;;4604180;27;20101;-61
2022/09/27 02:46:39;;;;;;;0.63;0.60;;;;;;;;;;4587945;27;20035;-60
2022/09/27 02:49:27;;;;;;;0.60;0.50;;;;;;;;;;4610100;27;20080;-60
2022/09/27 02:52:38;;;;;;;0.55;0.38;;;;;;;;;;4618300;27;20038;-61
2022/09/27 02:55:14;;;;;;;0.47;0.30;;;;;;;;;;4609700;27;20779;-60
2022/09/27 02:57:50;;;;;;;0.55;0.40;;;;;;;;;;4593414;27;20242;-61
2022/09/27 03:00:14;;;;;;;0.73;0.35;;;;;;;;;;4605985;27;20035;-61
2022/09/27 03:03:01;;;;;;;0.30;0.20;;;;;;;;;;4611356;27;20122;-60
2022/09/27 03:05:27;;;;;;;1.00;0.40;;;;;;;;;;4605027;27;20038;-60
2022/09/27 03:07:38;;;;;;;0.65;0.22;;;;;;;;;;4585579;27;20040;-60
2022/09/27 03:09:51;;;;;;;1.25;0.40;;;;;;;;;;4584617;27;20533;-60
2022/09/27 03:12:03;;;;;;;1.02;0.30;;;;;;;;;;4599635;27;20069;-61
2022/09/27 03:14:13;;;;;;;0.80;0.40;;;;;;;;;;4619867;27;20054;-61
2022/09/27 03:16:32;;;;;;;0.60;0.32;;;;;;;;;;4604544;27;20031;-61
2022/09/27 03:18:57;;;;;;;2.00;0.40;;;;;;;;;;4609347;27;20035;-60
2022/09/27 03:21:46;;;;;;;0.55;0.35;;;;;;;;;;4554779;28;20084;-60
2022/09/27 03:23:57;;;;;;;0.77;0.30;;;;;;;;;;4553597;28;20036;-61
2022/09/27 03:26:08;;;;;;;1.10;0.40;;;;;;;;;;4552182;27;20035;-61
2022/09/27 03:28:19;;;;;;;0.40;0.30;;;;;;;;;;4601023;27;20047;-61
2022/09/27 03:30:30;;;;;;;0.50;0.22;;;;;;;;;;4603123;27;20118;-61
2022/09/27 03:32:43;;;;;;;0.50;0.20;;;;;;;;;;4604872;27;20691;-61
2022/09/27 03:35:12;;;;;;;0.63;0.40;;;;;;;;;;4605058;27;20043;-61
2022/09/27 03:37:23;;;;;;;0.63;0.32;;;;;;;;;;4604297;27;20027;-61
2022/09/27 03:39:33;;;;;;;0.30;0.20;;;;;;;;;;4618715;27;20019;-61
2022/09/27 03:41:44;;;;;;;0.70;0.25;;;;;;;;;;4603003;27;20525;-61
2022/09/27 03:43:58;;;;;;;0.50;0.40;;;;;;;;;;4602737;27;20431;-61
2022/09/27 03:46:09;;;;;;;0.40;0.20;;;;;;;;;;4600034;27;20043;-60
2022/09/27 03:48:19;;;;;;;0.52;0.35;;;;;;;;;;4619820;27;20030;-60
2022/09/27 03:50:30;;;;;;;0.80;0.30;;;;;;;;;;4602705;27;20038;-60
2022/09/27 03:52:44;;;;;;;0.50;0.40;;;;;;;;;;4605002;27;20088;-61
2022/09/27 03:54:55;;;;;;;0.85;0.40;;;;;;;;;;4621498;27;20055;-60
2022/09/27 03:57:05;;;;;;;0.20;0.20;;;;;;;;;;4618624;27;20031;-61
2022/09/27 03:59:17;;;;;;;0.57;0.30;;;;;;;;;;4606309;27;20148;-61
2022/09/27 04:01:46;;;;;;;0.43;0.30;;;;;;;;;;4620444;27;20078;-61
2022/09/27 04:04:17;;;;;;;0.57;0.35;;;;;;;;;;4618594;27;20670;-61
2022/09/27 04:06:28;;;;;;;0.82;0.40;;;;;;;;;;4592900;27;20184;-60
2022/09/27 04:08:38;;;;;;;1.02;0.40;;;;;;;;;;4598229;27;20794;-61
2022/09/27 04:10:50;;;;;;;0.40;0.30;;;;;;;;;;4601753;27;20487;-61
2022/09/27 04:13:00;;;;;;;0.38;0.30;;;;;;;;;;4591391;27;20042;-61
2022/09/27 04:15:15;;;;;;;0.47;0.38;;;;;;;;;;4603419;27;20059;-61
2022/09/27 04:17:32;;;;;;;0.25;0.20;;;;;;;;;;4617033;27;20255;-61
2022/09/27 04:20:03;;;;;;;0.32;0.30;;;;;;;;;;4618649;27;20731;-61
2022/09/27 04:22:14;;;;;;;0.57;0.40;;;;;;;;;;4607748;27;20182;-61
2022/09/27 04:24:26;;;;;;;0.82;0.40;;;;;;;;;;4590374;27;20144;-61
2022/09/27 04:26:54;;;;;;;0.73;0.32;;;;;;;;;;4582268;27;20158;-61
2022/09/27 04:29:09;;;;;;;0.70;0.40;;;;;;;;;;4585637;27;20631;-61
2022/09/27 04:31:22;;;;;;;0.55;0.40;;;;;;;;;;4609149;27;20023;-61
2022/09/27 04:33:53;;;;;;;0.40;0.30;;;;;;;;;;4600736;27;20046;-61
2022/09/27 04:36:25;;;;;;;0.50;0.30;;;;;;;;;;4617254;27;20031;-61
2022/09/27 04:38:56;;;;;;;0.85;0.30;;;;;;;;;;4581141;27;20039;-61
2022/09/27 04:41:07;;;;;;;0.25;0.25;;;;;;;;;;4598093;27;20264;-61
2022/09/27 04:43:20;;;;;;;0.60;0.30;;;;;;;;;;4602587;27;20035;-61
2022/09/27 04:45:30;;;;;;;0.40;0.40;;;;;;;;;;4607043;27;20035;-61
2022/09/27 04:47:45;;;;;;;0.65;0.35;;;;;;;;;;4600203;27;20137;-61
2022/09/27 04:49:56;;;;;;;0.55;0.30;;;;;;;;;;4591365;27;20681;-61
2022/09/27 04:52:06;;;;;;;0.52;0.28;;;;;;;;;;4620398;27;20678;-61
2022/09/27 04:54:17;;;;;;;0.55;0.30;;;;;;;;;;4599702;27;20542;-61
2022/09/27 04:56:39;;;;;;;0.40;0.30;;;;;;;;;;4593541;27;20019;-61
2022/09/27 04:58:51;;;;;;;0.65;0.40;;;;;;;;;;4602020;27;20031;-61
2022/09/27 05:01:02;;;;;;;0.52;0.40;;;;;;;;;;4617336;27;20028;-61
2022/09/27 05:03:29;;;;;;;0.45;0.30;;;;;;;;;;4617685;27;20027;-61
2022/09/27 05:05:43;;;;;;;0.70;0.40;;;;;;;;;;4607384;27;20037;-61
2022/09/27 05:07:53;;;;;;;0.28;0.28;;;;;;;;;;4602152;27;20403;-62
2022/09/27 05:10:15;;;;;;;0.47;0.28;;;;;;;;;;4607883;27;20034;-61
2022/09/27 05:12:26;;;;;;;0.85;0.50;;;;;;;;;;4602584;27;20042;-61
2022/09/27 05:14:45;;;;;;;0.30;0.30;;;;;;;;;;4602319;27;20211;-61
2022/09/27 05:16:58;;;;;;;0.77;0.40;;;;;;;;;;4598494;27;20784;-62
2022/09/27 05:19:27;;;;;;;0.63;0.40;;;;;;;;;;4617742;27;20555;-62
2022/09/27 05:22:07;;;;;;;0.60;0.38;;;;;;;;;;4616810;27;20035;-60
2022/09/27 05:24:20;;;;;;;0.77;0.40;;;;;;;;;;4606537;27;20790;-61
2022/09/27 05:26:30;;;;;;;0.43;0.43;;;;;;;;;;4614928;27;20043;-61
2022/09/27 05:28:41;;;;;;;0.47;0.47;;;;;;;;;;4606042;27;20122;-61
2022/09/27 05:30:52;;;;;;;1.00;0.50;;;;;;;;;;4597696;27;20827;-61
2022/09/27 05:33:04;;;;;;;0.52;0.40;;;;;;;;;;4600695;27;20028;-60
2022/09/27 05:35:27;;;;;;;1.83;0.60;;;;;;;;;;4600274;27;20043;-61
2022/09/27 05:37:39;;;;;;;0.50;0.50;;;;;;;;;;4599405;27;20034;-61
2022/09/27 05:39:49;;;;;;;0.70;0.40;;;;;;;;;;4602635;27;21304;-61
2022/09/27 05:42:01;;;;;;;2.38;0.63;;;;;;;;;;4608702;27;20032;-61
2022/09/27 05:44:12;;;;;;;1.05;0.40;;;;;;;;;;4600627;27;20158;-61
2022/09/27 05:46:28;;;;;;;1.15;0.60;;;;;;;;;;4601680;27;20043;-61
2022/09/27 05:48:39;;;;;;;1.15;0.60;;;;;;;;;;4606284;27;20050;-61
2022/09/27 05:50:50;;;;;;;0.82;0.75;;;;;;;;;;4603113;27;20540;-61
2022/09/27 05:53:01;;;;;;;0.50;0.50;;;;;;;;;;4602276;27;20032;-61
2022/09/27 05:55:11;;;;;;;1.67;0.60;;;;;;;;;;4602929;27;20032;-61
2022/09/27 05:57:22;;;;;;;0.40;0.40;;;;;;;;;;4604808;27;20040;-61
2022/09/27 05:59:34;;;;;;;0.70;0.50;;;;;;;;;;4619019;27;20042;-62
2022/09/27 06:02:03;;;;;;;0.77;0.50;;;;;;;;;;4620026;27;20223;-61
2022/09/27 06:04:32;;;;;;;1.48;0.57;;;;;;;;;;4619051;27;20615;-61
2022/09/27 06:07:15;;;;;;;0.57;0.50;;;;;;;;;;4572198;27;20074;-61
2022/09/27 06:09:27;;;;;;;0.55;0.55;;;;;;;;;;4603491;27;20133;-61
2022/09/27 06:11:38;;;;;;;0.43;0.40;;;;;;;;;;4586092;27;20079;-61
2022/09/27 06:13:48;;;;;;;0.60;0.52;;;;;;;;;;4601536;27;20038;-61
2022/09/27 06:15:59;;;;;;;1.02;0.40;;;;;;;;;;4587167;27;20039;-61
2022/09/27 06:18:14;;;;;;;0.73;0.40;;;;;;;;;;4609769;27;20038;-61
2022/09/27 06:20:25;;;;;;;0.45;0.45;;;;;;;;;;4603333;27;20146;-61
2022/09/27 06:22:36;;;;;;;0.50;0.50;;;;;;;;;;4609119;27;20553;-60
2022/09/27 06:24:47;;;;;;;0.40;0.40;;;;;;;;;;4599523;27;20028;-61
2022/09/27 06:27:03;;;;;;;1.10;0.50;;;;;;;;;;4602258;27;20053;-60
2022/09/27 06:29:28;;;;;;;1.13;0.50;;;;;;;;;;4619246;27;20050;-63
2022/09/27 06:31:42;;;;;;;0.70;0.50;;;;;;;;;;4604204;27;20031;-61
2022/09/27 06:34:04;;;;;;;1.50;0.60;;;;;;;;;;4603601;27;20520;-61
2022/09/27 06:36:15;;;;;;;0.70;0.50;;;;;;;;;;4599867;27;20031;-61
2022/09/27 06:38:25;;;;;;;0.75;0.43;;;;;;;;;;4569209;27;21615;-61
2022/09/27 06:40:48;;;;;;;0.68;0.52;;;;;;;;;;4602359;27;20147;-61
2022/09/27 06:43:08;;;;;;;0.73;0.50;;;;;;;;;;4602805;27;20031;-61
2022/09/27 06:45:38;;;;;;;0.55;0.55;;;;;;;;;;4597473;27;20547;-61
2022/09/27 06:48:09;;;;;;;1.55;0.73;;;;;;;;;;4617431;27;20191;-61
2022/09/27 06:50:31;;;;;;;0.70;0.55;;;;;;;;;;4601935;27;20035;-61
2022/09/27 06:52:47;;;;;;;0.85;0.70;;;;;;;;;;4609403;27;20035;-61
2022/09/27 06:54:57;;;;;;;1.05;0.70;;;;;;;;;;4601180;27;20027;-61
2022/09/27 06:57:08;;;;;;;1.02;0.93;;;;;;;;;;4618490;27;20029;-61
2022/09/27 07:02:06;;;;;;;0.80;0.77;;;;;;;;;;4618294;27;20039;-60
2022/09/27 07:04:35;;;;;;;1.33;0.95;;;;;;;;;;4618421;27;20540;-60
2022/09/27 07:06:48;;;;;;;1.95;1.15;;;;;;;;;;4605407;27;20972;-60
2022/09/27 07:09:05;;;;;;;;;;;;;;;;;;4601633;27;20759;-60
2022/09/27 07:11:17;;;;;;;1.63;1.30;;;;;;;;;;4604099;27;19958;-60
2022/09/27 07:13:30;;;;;;;1.30;1.00;;;;;;;;;;4599680;27;20019;-60
2022/09/27 07:15:41;;;;;;;2.60;1.40;;;;;;;;;;4603225;27;20036;-60
2022/09/27 07:17:57;;;;;;;2.35;1.40;;;;;;;;;;4616091;27;20035;-60
2022/09/27 07:20:09;;;;;;;1.73;1.48;;;;;;;;;;4600377;27;20119;-61
2022/09/27 07:22:19;;;;;;;1.98;1.60;;;;;;;;;;4601769;27;20495;-61
2022/09/27 07:24:36;;;;;;;2.08;1.40;;;;;;;;;;4602428;27;20632;-60
2022/09/27 07:26:48;;;;;;;1.60;1.50;;;;;;;;;;4603909;27;20035;-61
2022/09/27 07:29:00;;;;;;;2.10;1.90;;;;;;;;;;4585702;27;20070;-60
2022/09/27 07:31:12;;;;;;;2.80;2.03;;;;;;;;;;4603096;27;20110;-61
2022/09/27 07:33:22;;;;;;;2.30;2.00;;;;;;;;;;4610598;27;20519;-61
2022/09/27 07:35:35;;;;;;;2.20;1.95;;;;;;;;;;4606347;27;20023;-60
2022/09/27 07:37:46;;;;;;;2.70;2.40;;;;;;;;;;4586501;27;20131;-60
2022/09/27 07:39:59;;;;;;;2.83;2.55;;;;;;;;;;4583326;27;20035;-60
2022/09/27 07:42:09;;;;;;;3.10;2.70;;;;;;;;;;4615695;27;20658;-61
2022/09/27 07:44:25;;;;;;;3.05;2.75;;;;;;;;;;4587411;27;20082;-61
2022/09/27 07:46:59;;;;;;;3.28;2.70;;;;;;;;;;4615369;27;20977;-61
2022/09/27 07:49:29;;;;;;;2.88;2.60;;;;;;;;;;4616971;27;20039;-61
2022/09/27 07:51:58;;;;;;;3.35;2.55;;;;;;;;;;4603763;27;20035;-60
2022/09/27 07:54:28;;;;;;;4.00;2.70;;;;;;;;;;4617775;27;20098;-62
2022/09/27 07:57:07;;;;;;;2.75;2.50;;;;;;;;;;4607875;27;20027;-60
2022/09/27 07:59:28;;;;;;;3.08;2.65;;;;;;;;;;4609315;27;20038;-62
2022/09/27 08:01:38;;;;;;;3.03;2.60;;;;;;;;;;4602079;27;20039;-61
2022/09/27 08:03:49;;;;;;;3.25;2.75;;;;;;;;;;4616570;27;20026;-62
2022/09/27 08:06:02;;;;;;;3.22;2.92;;;;;;;;;;4602532;27;20602;-61
2022/09/27 08:08:14;;;;;;;3.03;2.72;;;;;;;;;;4590548;27;21344;-69
2022/09/27 08:10:29;;;;;;;3.17;2.80;;;;;;;;;;4608956;27;20027;-67
2022/09/27 08:12:39;;;;;;;3.10;2.80;;;;;;;;;;4591860;27;20496;-73
2022/09/27 08:14:51;;;;;;;3.78;2.80;;;;;;;;;;4607618;27;20146;-71
2022/09/27 08:17:01;;;;;;;3.35;3.05;;;;;;;;;;4585136;27;20024;-60
2022/09/27 08:19:12;;;;;;;4.65;3.20;;;;;;;;;;4618687;27;20031;-62
2022/09/27 08:21:25;;;;;;;3.45;3.05;;;;;;;;;;4616114;27;21034;-62
2022/09/27 08:23:54;;;;;;;3.53;3.03;;;;;;;;;;4604068;27;20024;-61
2022/09/27 08:26:16;;;;;;;3.20;2.90;;;;;;;;;;4600543;27;21286;-60
2022/09/27 08:28:38;;;;;;;3.63;2.88;;;;;;;;;;4603281;27;20054;-59
2022/09/27 08:31:00;;;;;;;3.45;3.08;;;;;;;;;;4597481;27;20795;-62
2022/09/27 08:33:10;;;;;;;3.55;3.13;;;;;;;;;;4617268;27;20038;-59
2022/09/27 08:35:21;;;;;;;3.20;2.85;;;;;;;;;;4598596;27;20051;-59
2022/09/27 08:37:31;;;;;;;3.25;2.90;;;;;;;;;;4598622;27;20043;-59
2022/09/27 08:39:42;;;;;;;3.40;2.70;;;;;;;;;;4598416;27;20027;-59
2022/09/27 08:42:07;;;;;;;3.58;2.90;;;;;;;;;;4601691;27;20035;-59
2022/09/27 08:44:30;;;;;;;3.22;2.90;;;;;;;;;;4584790;27;20063;-59
2022/09/27 08:47:21;;;;;;;3.13;2.78;;;;;;;;;;4593130;27;20031;-60
2022/09/27 08:49:40;;;;;;;2.85;2.40;;;;;;;;;;4606187;27;20031;-59
2022/09/27 08:51:52;;;;;;;2.50;2.30;;;;;;;;;;4607893;27;20033;-60
2022/09/27 08:54:07;;;;;;;2.20;2.00;;;;;;;;;;4589767;27;21345;-59
2022/09/27 08:56:22;;;;;;;2.67;2.20;;;;;;;;;;4586306;27;20028;-59
2022/09/27 08:58:54;;;;;;;2.58;2.38;;;;;;;;;;4591371;27;20636;-58
2022/09/27 09:01:14;;;;;;;2.92;2.60;;;;;;;;;;4600141;27;20027;-59
2022/09/27 09:03:35;;;;;;;3.30;2.80;;;;;;;;;;4583981;27;20886;-59
2022/09/27 09:05:58;;;;;;;2.72;2.50;;;;;;;;;;4589531;27;20024;-59
2022/09/27 09:08:22;;;;;;;3.08;2.00;;;;;;;;;;4616624;27;20116;-59
2022/09/27 09:13:30;;;;;;;2.00;1.73;;;;;;;;;;4584586;27;20594;-60
2022/09/27 09:15:55;;;;;;;2.05;1.70;;;;;;;;;;4601564;27;20035;-59
2022/09/27 09:18:56;;;;;;;1.80;1.67;;;;;;;;;;4589994;27;20576;-59
2022/09/27 09:21:47;;;;;;;1.55;1.45;;;;;;;;;;4600074;27;20039;-60
2022/09/27 09:24:32;;;;;;;1.60;1.50;;;;;;;;;;4607020;27;20050;-59
2022/09/27 09:27:14;;;;;;;1.50;1.40;;;;;;;;;;4585949;27;21254;-60
2022/09/27 09:29:45;;;;;;;2.40;1.42;;;;;;;;;;4587844;27;20047;-58
2022/09/27 09:32:33;;;;;;;1.27;1.17;;;;;;;;;;4584408;27;20700;-60
2022/09/27 09:34:48;;;;;;;1.63;1.30;;;;;;;;;;4617809;27;20547;-59
2022/09/27 09:37:15;;;;;;;1.90;1.42;;;;;;;;;;4603340;27;21028;-60
2022/09/27 09:39:32;;;;;;;1.93;1.43;;;;;;;;;;4609960;27;21364;-60
2022/09/27 09:41:50;;;;;;;2.28;1.60;;;;;;;;;;4599669;27;20042;-60
2022/09/27 09:44:30;;;;;;;1.52;1.42;;;;;;;;;;4601927;27;20042;-62
2022/09/27 09:46:48;;;;;;;2.13;1.52;;;;;;;;;;4600167;27;21203;-59
2022/09/27 09:49:23;;;;;;;2.13;1.58;;;;;;;;;;4592259;27;20036;-59
2022/09/27 09:51:42;;;;;;;1.98;1.60;;;;;;;;;;4611278;27;20078;-61
2022/09/27 09:54:21;;;;;;;1.67;1.50;;;;;;;;;;4584741;27;20032;-60
2022/09/27 09:56:38;;;;;;;2.47;1.80;;;;;;;;;;4604496;27;20898;-60
2022/09/27 09:59:11;;;;;;;1.80;1.60;;;;;;;;;;4618512;27;20027;-60
2022/09/27 10:01:39;;;;;;;1.58;1.48;;;;;;;;;;4605595;27;20042;-58
2022/09/27 10:03:49;;;;;;;1.50;1.40;;;;;;;;;;4591366;27;20055;-62
2022/09/27 10:06:00;;;;;;;2.30;1.60;;;;;;;;;;4599740;27;20099;-59
2022/09/27 10:08:21;;;;;;;1.73;1.60;;;;;;;;;;4592232;27;20039;-60
2022/09/27 10:10:40;;;;;;;1.55;1.45;;;;;;;;;;4616815;27;20031;-61
2022/09/27 10:13:15;;;;;;;2.00;1.50;;;;;;;;;;4592293;27;20043;-60
2022/09/27 10:15:28;;;;;;;1.95;1.42;;;;;;;;;;4598215;27;20031;-59
2022/09/27 10:17:41;;;;;;;1.55;1.40;;;;;;;;;;4583983;27;20128;-59
2022/09/27 10:19:55;;;;;;;1.65;1.50;;;;;;;;;;4610008;27;20027;-60
2022/09/27 10:22:16;;;;;;;3.05;1.40;;;;;;;;;;4602435;27;20031;-56
2022/09/27 10:24:27;;;;;;;1.50;1.40;;;;;;;;;;4599360;27;20031;-57
2022/09/27 10:26:43;;;;;;;2.30;1.50;;;;;;;;;;4617418;27;20587;-58
2022/09/27 10:28:53;;;;;;;1.60;1.50;;;;;;;;;;4591721;27;20043;-59
2022/09/27 10:31:19;;;;;;;1.73;1.50;;;;;;;;;;4587254;27;20114;-58
2022/09/27 10:33:58;;;;;;;1.75;1.58;;;;;;;;;;4597221;27;20889;-57
2022/09/27 10:36:25;;;;;;;1.45;1.35;;;;;;;;;;4586681;27;20743;-58
2022/09/27 10:38:36;;;;;;;1.50;1.40;;;;;;;;;;4616180;27;20031;-59
2022/09/27 10:41:24;;;;;;;1.80;1.40;;;;;;;;;;4587374;27;20103;-59
2022/09/27 10:43:39;;;;;;;1.42;1.33;;;;;;;;;;4604600;27;20068;-59
2022/09/27 10:46:09;;;;;;;1.40;1.30;;;;;;;;;;4609685;27;20027;-59
2022/09/27 10:48:22;;;;;;;1.70;1.60;;;;;;;;;;4585985;27;20118;-59
2022/09/27 10:50:38;;;;;;;2.30;1.50;;;;;;;;;;4599981;27;20095;-59
2022/09/27 10:53:14;;;;;;;1.30;1.20;;;;;;;;;;4585755;27;20683;-59
2022/09/27 10:55:26;;;;;;;1.30;1.10;;;;;;;;;;4592185;27;20062;-59
2022/09/27 10:57:38;;;;;;;1.23;1.13;;;;;;;;;;4592373;27;20028;-59
2022/09/27 10:59:55;;;;;;;1.33;1.20;;;;;;;;;;4582019;27;20028;-58
2022/09/27 11:02:19;;;;;;;1.10;1.02;;;;;;;;;;4591871;27;20544;-59
2022/09/27 11:04:36;;;;;;;1.40;1.10;;;;;;;;;;4610215;27;20031;-59
2022/09/27 11:06:47;;;;;;;1.13;1.00;;;;;;;;;;4608004;27;20039;-58
2022/09/27 11:09:10;;;;;;;0.90;0.90;;;;;;;;;;4581691;27;20155;-59
2022/09/27 11:11:27;;;;;;;1.00;0.95;;;;;;;;;;4609337;27;20138;-59
2022/09/27 11:13:38;;;;;;;1.13;1.02;;;;;;;;;;4592404;27;20040;-58
2022/09/27 11:16:15;;;;;;;1.00;1.00;;;;;;;;;;4592805;27;20791;-58
2022/09/27 11:18:55;;;;;;;1.35;0.90;;;;;;;;;;4601852;27;20680;-58
2022/09/27 11:21:18;;;;;;;1.10;1.00;;;;;;;;;;4607802;27;20064;-58
2022/09/27 11:23:37;;;;;;;1.30;1.20;;;;;;;;;;4586108;27;20127;-59
2022/09/27 11:25:57;;;;;;;1.83;1.38;;;;;;;;;;4609109;27;20578;-59
2022/09/27 11:28:27;;;;;;;2.05;1.65;;;;;;;;;;4604009;27;20169;-59
2022/09/27 11:30:41;;;;;;;3.38;2.20;;;;;;;;;;4603571;27;20031;-59
2022/09/27 11:33:34;;;;;;;0.73;0.73;;;;;;;;;;4617330;27;20027;-59
2022/09/27 11:36:06;;;;;;;1.50;1.40;;;;;;;;;;4598664;27;20036;-58
2022/09/27 11:38:45;;;;;;;0.85;0.85;;;;;;;;;;4598677;27;20038;-58
2022/09/27 11:41:35;;;;;;;1.20;1.08;;;;;;;;;;4598231;27;20031;-58
2022/09/27 11:43:48;;;;;;;0.60;0.60;;;;;;;;;;4557220;27;20050;-58
2022/09/27 11:46:14;;;;;;;0.55;0.55;;;;;;;;;;4608151;27;20035;-58
2022/09/27 11:48:59;;;;;;;0.40;0.40;;;;;;;;;;4601419;27;20039;-58
2022/09/27 11:51:30;;;;;;;0.40;0.40;;;;;;;;;;4607175;27;20035;-58
2022/09/27 11:53:58;;;;;;;0.50;0.50;;;;;;;;;;4603063;27;20039;-58
2022/09/27 11:56:14;;;;;;;0.98;0.70;;;;;;;;;;4591507;27;20054;-58
2022/09/27 11:58:43;;;;;;;0.60;0.60;;;;;;;;;;4586168;27;20032;-58
2022/09/27 12:01:30;;;;;;;0.80;0.60;;;;;;;;;;4608356;27;20138;-58
2022/09/27 12:04:11;;;;;;;0.50;0.50;;;;;;;;;;4609873;27;20218;-58
2022/09/27 12:06:48;;;;;;;1.45;0.60;;;;;;;;;;4608263;27;20136;-58
2022/09/27 12:09:15;;;;;;;0.68;0.50;;;;;;;;;;4613145;27;20066;-59
2022/09/27 12:11:27;;;;;;;0.63;0.45;;;;;;;;;;4584999;27;20592;-60
2022/09/27 12:13:45;;;;;;;1.05;0.68;;;;;;;;;;4602038;27;20142;-58
2022/09/27 12:15:56;;;;;;;1.45;1.10;;;;;;;;;;4591439;27;20036;-59
2022/09/27 12:18:25;;;;;;;1.60;1.30;;;;;;;;;;4583511;27;20651;-59
2022/09/27 12:20:36;;;;;;;5.20;3.60;;;;;;;;;;4608840;27;20969;-58
2022/09/27 12:22:51;;;;;;;3.17;2.33;;;;;;;;;;4592283;27;20020;-58
2022/09/27 12:25:06;;;;;;;1.90;1.35;;;;;;;;;;4618046;27;20571;-59
2022/09/27 12:27:40;;;;;;;0.50;0.50;;;;;;;;;;4593263;27;21091;-59
2022/09/27 12:29:57;;;;;;;0.88;0.70;;;;;;;;;;4599416;27;20087;-60
2022/09/27 12:32:13;;;;;;;1.10;0.80;;;;;;;;;;4598787;27;20035;-60
2022/09/27 12:34:27;;;;;;;;;;;;;;;;;;4606841;27;20043;-61
2022/09/27 12:36:42;;;;;;;1.05;0.85;;;;;;;;;;4617060;27;19923;-58
2022/09/27 12:39:27;;;;;;;0.70;0.70;;;;;;;;;;4598636;27;20139;-60
2022/09/27 12:42:00;;;;;;;0.60;0.60;;;;;;;;;;4590749;27;20031;-59
2022/09/27 12:44:21;;;;;;;1.20;0.60;;;;;;;;;;4582697;27;20058;-60
2022/09/27 12:46:50;;;;;;;0.70;0.70;;;;;;;;;;4600875;27;20120;-60
2022/09/27 12:49:25;;;;;;;0.95;0.73;;;;;;;;;;4598658;27;20738;-60
2022/09/27 12:51:53;;;;;;;0.70;0.70;;;;;;;;;;4602186;27;20039;-59
2022/09/27 12:54:07;;;;;;;;;;;;;;;;;;4608334;27;20134;-61
2022/09/27 12:56:56;;;;;;;0.73;0.73;;;;;;;;;;4592382;27;20711;-61
2022/09/27 12:59:34;;;;;;;1.08;0.80;;;;;;;;;;4600534;27;20084;-61
2022/09/27 13:01:51;;;;;;;0.70;0.70;;;;;;;;;;4616670;27;20185;-59
2022/09/27 13:04:20;;;;;;;1.10;0.70;;;;;;;;;;4582235;27;20031;-59
2022/09/27 13:07:04;;;;;;;1.02;0.80;;;;;;;;;;4607099;27;20031;-60
2022/09/27 13:09:32;;;;;;;2.15;1.00;;;;;;;;;;4557093;27;20678;-60
2022/09/27 13:12:09;;;;;;;1.13;1.00;;;;;;;;;;4606328;27;20028;-59
2022/09/27 13:14:24;;;;;;;1.05;0.90;;;;;;;;;;4582085;27;20582;-59
2022/09/27 13:16:42;;;;;;;1.58;1.10;;;;;;;;;;4589758;27;20040;-60
2022/09/27 13:19:00;;;;;;;1.20;1.10;;;;;;;;;;4588430;22;20660;-59
2022/09/27 13:21:49;;;;;;;1.33;0.90;;;;;;;;;;4554306;28;20045;-59
2022/09/27 13:24:40;;;;;;;2.70;2.15;;;;;;;;;;4554067;28;20032;-59
2022/09/27 13:27:00;;;;;;;0.80;0.80;;;;;;;;;;4553901;28;20620;-59
2022/09/27 13:29:32;;;;;;;1.00;1.00;;;;;;;;;;4524346;28;20512;-60
2022/09/27 13:31:54;;;;;;;0.80;0.80;;;;;;;;;;4531468;28;20037;-60
2022/09/27 13:34:37;;;;;;;0.77;0.77;;;;;;;;;;4528655;28;20932;-60
2022/09/27 13:36:48;;;;;;;0.60;0.60;;;;;;;;;;4512306;28;20037;-59
2022/09/27 13:39:04;;;;;;;0.65;0.65;;;;;;;;;;4513289;28;20514;-60
2022/09/27 13:41:18;;;;;;;1.15;0.70;;;;;;;;;;4527323;28;20269;-60
2022/09/27 13:43:53;;;;;;;1.98;0.90;;;;;;;;;;4514307;28;20786;-59
2022/09/27 13:46:27;;;;;;;1.40;0.90;;;;;;;;;;4529994;28;20502;-61
2022/09/27 13:48:46;;;;;;;1.13;1.00;;;;;;;;;;4532371;28;20084;-59
2022/09/27 13:51:02;;;;;;;0.80;0.80;;;;;;;;;;4528682;28;20631;-60
2022/09/27 13:53:18;;;;;;;1.65;1.05;;;;;;;;;;4514384;28;20339;-60
2022/09/27 13:55:47;;;;;;;0.90;0.90;;;;;;;;;;4528613;28;20041;-60
2022/09/27 13:58:18;;;;;;;1.20;1.10;;;;;;;;;;4527635;28;21263;-60
2022/09/27 14:00:37;;;;;;;0.80;0.80;;;;;;;;;;4512020;28;20264;-60
2022/09/27 14:03:24;;;;;;;0.80;0.80;;;;;;;;;;4495359;28;20025;-60
2022/09/27 14:05:40;;;;;;;1.10;1.00;;;;;;;;;;4513569;28;20146;-60
2022/09/27 14:07:52;;;;;;;1.10;1.00;;;;;;;;;;4513081;28;20113;-60
2022/09/27 14:10:03;;;;;;;1.20;1.10;;;;;;;;;;4510556;28;20034;-59
2022/09/27 14:12:26;;;;;;;1.10;1.00;;;;;;;;;;4531390;28;20123;-60